sensor_id;sensor_type;location;lat;lon;timestamp;temperature;humidity
11009;DHT22;5557;51.670;7.788;2023-10-08T00:01:10;18.10;20.70
11009;DHT22;5557;51.670;7.788;2023-10-08T00:03:42;18.10;21.20
11009;DHT22;5557;51.670;7.788;2023-10-08T00:06:17;18.10;21.30
11009;DHT22;5557;51.670;7.788;2023-10-08T00:08:46;18.00;21.50
11009;DHT22;5557;51.670;7.788;2023-10-08T00:11:14;18.00;21.30
11009;DHT22;5557;51.670;7.788;2023-10-08T00:13:43;18.00;21.90
11009;DHT22;5557;51.670;7.788;2023-10-08T00:16:12;18.00;22.20
11009;DHT22;5557;51.670;7.788;2023-10-08T00:18:44;17.90;23.30
11009;DHT22;5557;51.670;7.788;2023-10-08T00:21:21;17.90;23.40
11009;DHT22;5557;51.670;7.788;2023-10-08T00:23:55;17.90;23.70
11009;DHT22;5557;51.670;7.788;2023-10-08T00:26:27;17.90;23.90
11009;DHT22;5557;51.670;7.788;2023-10-08T00:29:04;17.90;23.50
11009;DHT22;5557;51.670;7.788;2023-10-08T00:31:44;17.90;23.70
11009;DHT22;5557;51.670;7.788;2023-10-08T00:34:13;17.90;24.30
11009;DHT22;5557;51.670;7.788;2023-10-08T00:36:42;17.80;24.70
11009;DHT22;5557;51.670;7.788;2023-10-08T00:39:10;17.80;25.20
11009;DHT22;5557;51.670;7.788;2023-10-08T00:41:45;17.80;25.50
11009;DHT22;5557;51.670;7.788;2023-10-08T00:44:14;17.80;25.60
11009;DHT22;5557;51.670;7.788;2023-10-08T00:47:04;17.80;25.80
11009;DHT22;5557;51.670;7.788;2023-10-08T00:49:51;17.80;25.60
11009;DHT22;5557;51.670;7.788;2023-10-08T00:52:30;17.80;25.80
11009;DHT22;5557;51.670;7.788;2023-10-08T00:55:04;17.80;25.80
11009;DHT22;5557;51.670;7.788;2023-10-08T00:57:36;17.80;25.70
11009;DHT22;5557;51.670;7.788;2023-10-08T01:00:04;17.80;26.10
11009;DHT22;5557;51.670;7.788;2023-10-08T01:02:54;17.80;26.20
11009;DHT22;5557;51.670;7.788;2023-10-08T01:05:28;17.80;26.60
11009;DHT22;5557;51.670;7.788;2023-10-08T01:08:15;17.80;27.60
11009;DHT22;5557;51.670;7.788;2023-10-08T01:10:54;17.80;27.60
11009;DHT22;5557;51.670;7.788;2023-10-08T01:13:30;17.80;28.10
11009;DHT22;5557;51.670;7.788;2023-10-08T01:16:02;17.80;27.70
11009;DHT22;5557;51.670;7.788;2023-10-08T01:18:30;17.80;27.60
11009;DHT22;5557;51.670;7.788;2023-10-08T01:20:59;17.80;27.60
11009;DHT22;5557;51.670;7.788;2023-10-08T01:23:35;17.80;27.60
11009;DHT22;5557;51.670;7.788;2023-10-08T01:26:02;17.80;27.30
11009;DHT22;5557;51.670;7.788;2023-10-08T01:28:38;17.80;27.50
11009;DHT22;5557;51.670;7.788;2023-10-08T01:31:05;17.80;27.60
11009;DHT22;5557;51.670;7.788;2023-10-08T01:33:34;17.80;27.60
11009;DHT22;5557;51.670;7.788;2023-10-08T01:36:05;17.80;27.60
11009;DHT22;5557;51.670;7.788;2023-10-08T01:38:35;17.80;27.60
11009;DHT22;5557;51.670;7.788;2023-10-08T01:41:02;17.80;27.60
11009;DHT22;5557;51.670;7.788;2023-10-08T01:43:46;17.80;28.70
11009;DHT22;5557;51.670;7.788;2023-10-08T01:46:13;17.80;28.40
11009;DHT22;5557;51.670;7.788;2023-10-08T01:48:42;17.80;28.80
11009;DHT22;5557;51.670;7.788;2023-10-08T01:51:12;17.70;28.60
11009;DHT22;5557;51.670;7.788;2023-10-08T01:53:55;17.80;29.10
11009;DHT22;5557;51.670;7.788;2023-10-08T01:56:22;17.80;29.60
11009;DHT22;5557;51.670;7.788;2023-10-08T01:58:49;17.80;29.70
11009;DHT22;5557;51.670;7.788;2023-10-08T02:01:20;17.80;29.60
11009;DHT22;5557;51.670;7.788;2023-10-08T02:03:47;17.80;29.80
11009;DHT22;5557;51.670;7.788;2023-10-08T02:06:15;17.70;29.80
11009;DHT22;5557;51.670;7.788;2023-10-08T02:08:42;17.70;29.80
11009;DHT22;5557;51.670;7.788;2023-10-08T02:11:09;17.70;30.30
11009;DHT22;5557;51.670;7.788;2023-10-08T02:13:37;17.70;31.80
11009;DHT22;5557;51.670;7.788;2023-10-08T02:16:04;17.70;35.00
11009;DHT22;5557;51.670;7.788;2023-10-08T02:18:32;17.60;39.50
11009;DHT22;5557;51.670;7.788;2023-10-08T02:21:00;17.60;41.10
11009;DHT22;5557;51.670;7.788;2023-10-08T02:23:27;17.50;42.60
11009;DHT22;5557;51.670;7.788;2023-10-08T02:25:55;17.50;44.10
11009;DHT22;5557;51.670;7.788;2023-10-08T02:28:22;17.40;47.70
11009;DHT22;5557;51.670;7.788;2023-10-08T02:30:51;17.30;49.10
11009;DHT22;5557;51.670;7.788;2023-10-08T02:33:19;17.30;51.70
11009;DHT22;5557;51.670;7.788;2023-10-08T02:35:47;17.30;53.40
11009;DHT22;5557;51.670;7.788;2023-10-08T02:38:17;17.20;54.50
11009;DHT22;5557;51.670;7.788;2023-10-08T02:40:45;17.20;57.00
11009;DHT22;5557;51.670;7.788;2023-10-08T02:43:15;17.10;58.10
11009;DHT22;5557;51.670;7.788;2023-10-08T02:45:43;17.10;59.60
11009;DHT22;5557;51.670;7.788;2023-10-08T02:48:15;17.10;61.70
11009;DHT22;5557;51.670;7.788;2023-10-08T02:50:43;17.10;63.60
11009;DHT22;5557;51.670;7.788;2023-10-08T02:53:14;17.10;67.20
11009;DHT22;5557;51.670;7.788;2023-10-08T02:55:50;17.10;66.30
11009;DHT22;5557;51.670;7.788;2023-10-08T02:58:17;17.10;69.60
11009;DHT22;5557;51.670;7.788;2023-10-08T03:00:48;17.00;71.40
11009;DHT22;5557;51.670;7.788;2023-10-08T03:03:16;17.00;72.00
11009;DHT22;5557;51.670;7.788;2023-10-08T03:05:49;17.00;73.90
11009;DHT22;5557;51.670;7.788;2023-10-08T03:08:19;17.00;78.30
11009;DHT22;5557;51.670;7.788;2023-10-08T03:10:52;16.90;79.80
11009;DHT22;5557;51.670;7.788;2023-10-08T03:13:23;16.90;81.70
11009;DHT22;5557;51.670;7.788;2023-10-08T03:15:53;16.90;81.90
11009;DHT22;5557;51.670;7.788;2023-10-08T03:18:49;16.90;80.50
11009;DHT22;5557;51.670;7.788;2023-10-08T03:21:17;16.90;80.00
11009;DHT22;5557;51.670;7.788;2023-10-08T03:23:50;16.90;79.80
11009;DHT22;5557;51.670;7.788;2023-10-08T03:26:18;16.90;79.90
11009;DHT22;5557;51.670;7.788;2023-10-08T03:29:02;16.90;79.50
11009;DHT22;5557;51.670;7.788;2023-10-08T03:31:38;16.90;78.20
11009;DHT22;5557;51.670;7.788;2023-10-08T03:34:31;16.90;77.90
11009;DHT22;5557;51.670;7.788;2023-10-08T03:37:01;16.90;79.20
11009;DHT22;5557;51.670;7.788;2023-10-08T03:39:34;16.80;81.10
11009;DHT22;5557;51.670;7.788;2023-10-08T03:42:39;16.90;80.10
11009;DHT22;5557;51.670;7.788;2023-10-08T03:45:10;16.80;79.50
11009;DHT22;5557;51.670;7.788;2023-10-08T03:47:39;16.80;79.10
11009;DHT22;5557;51.670;7.788;2023-10-08T03:50:08;16.80;78.90
11009;DHT22;5557;51.670;7.788;2023-10-08T03:52:38;16.80;79.00
11009;DHT22;5557;51.670;7.788;2023-10-08T03:55:05;16.70;79.20
11009;DHT22;5557;51.670;7.788;2023-10-08T03:57:53;16.70;79.30
11009;DHT22;5557;51.670;7.788;2023-10-08T04:00:24;16.70;79.50
11009;DHT22;5557;51.670;7.788;2023-10-08T04:03:08;16.70;78.30
11009;DHT22;5557;51.670;7.788;2023-10-08T04:05:38;16.70;77.00
11009;DHT22;5557;51.670;7.788;2023-10-08T04:08:26;16.70;76.10
11009;DHT22;5557;51.670;7.788;2023-10-08T04:11:25;16.70;75.10
11009;DHT22;5557;51.670;7.788;2023-10-08T04:14:02;16.70;75.50
11009;DHT22;5557;51.670;7.788;2023-10-08T04:16:31;16.70;80.50
11009;DHT22;5557;51.670;7.788;2023-10-08T04:18:59;16.70;84.90
11009;DHT22;5557;51.670;7.788;2023-10-08T04:21:30;16.60;89.40
11009;DHT22;5557;51.670;7.788;2023-10-08T04:24:01;16.60;91.80
11009;DHT22;5557;51.670;7.788;2023-10-08T04:26:31;16.50;95.30
11009;DHT22;5557;51.670;7.788;2023-10-08T04:29:00;16.50;98.00
11009;DHT22;5557;51.670;7.788;2023-10-08T04:31:33;16.30;99.60
11009;DHT22;5557;51.670;7.788;2023-10-08T04:34:06;16.10;99.90
11009;DHT22;5557;51.670;7.788;2023-10-08T04:36:49;16.00;99.90
11009;DHT22;5557;51.670;7.788;2023-10-08T04:39:27;15.70;99.90
11009;DHT22;5557;51.670;7.788;2023-10-08T04:42:03;15.50;99.90
11009;DHT22;5557;51.670;7.788;2023-10-08T04:44:40;15.30;99.90
11009;DHT22;5557;51.670;7.788;2023-10-08T04:47:08;15.10;99.90
11009;DHT22;5557;51.670;7.788;2023-10-08T04:49:36;14.90;99.90
11009;DHT22;5557;51.670;7.788;2023-10-08T04:52:12;14.80;99.90
11009;DHT22;5557;51.670;7.788;2023-10-08T04:54:42;14.60;99.90
11009;DHT22;5557;51.670;7.788;2023-10-08T04:57:19;14.60;99.90
11009;DHT22;5557;51.670;7.788;2023-10-08T04:59:49;14.50;99.90
11009;DHT22;5557;51.670;7.788;2023-10-08T05:02:25;14.40;99.90
11009;DHT22;5557;51.670;7.788;2023-10-08T05:05:16;14.30;99.90
11009;DHT22;5557;51.670;7.788;2023-10-08T05:07:52;14.30;99.90
11009;DHT22;5557;51.670;7.788;2023-10-08T05:10:39;14.20;99.90
11009;DHT22;5557;51.670;7.788;2023-10-08T05:13:28;14.10;99.90
11009;DHT22;5557;51.670;7.788;2023-10-08T05:16:02;14.00;99.90
11009;DHT22;5557;51.670;7.788;2023-10-08T05:18:38;14.00;99.90
11009;DHT22;5557;51.670;7.788;2023-10-08T05:21:25;14.00;99.90
11009;DHT22;5557;51.670;7.788;2023-10-08T05:23:52;13.90;99.90
11009;DHT22;5557;51.670;7.788;2023-10-08T05:26:41;13.80;99.90
11009;DHT22;5557;51.670;7.788;2023-10-08T05:29:11;13.70;99.90
11009;DHT22;5557;51.670;7.788;2023-10-08T05:32:01;13.70;99.90
11009;DHT22;5557;51.670;7.788;2023-10-08T05:34:47;13.70;99.90
11009;DHT22;5557;51.670;7.788;2023-10-08T05:37:40;13.60;99.90
11009;DHT22;5557;51.670;7.788;2023-10-08T05:40:10;13.60;99.90
11009;DHT22;5557;51.670;7.788;2023-10-08T05:43:00;13.50;99.90
11009;DHT22;5557;51.670;7.788;2023-10-08T05:45:40;13.40;99.90
11009;DHT22;5557;51.670;7.788;2023-10-08T05:48:19;13.40;99.90
11009;DHT22;5557;51.670;7.788;2023-10-08T05:50:54;13.30;99.90
11009;DHT22;5557;51.670;7.788;2023-10-08T05:53:40;13.30;99.90
11009;DHT22;5557;51.670;7.788;2023-10-08T05:56:15;13.30;99.90
11009;DHT22;5557;51.670;7.788;2023-10-08T05:58:56;13.30;99.90
11009;DHT22;5557;51.670;7.788;2023-10-08T06:01:41;13.20;99.90
11009;DHT22;5557;51.670;7.788;2023-10-08T06:04:09;13.20;99.90
11009;DHT22;5557;51.670;7.788;2023-10-08T06:07:08;13.20;99.90
11009;DHT22;5557;51.670;7.788;2023-10-08T06:09:49;13.10;99.90
11009;DHT22;5557;51.670;7.788;2023-10-08T06:12:40;13.10;99.90
11009;DHT22;5557;51.670;7.788;2023-10-08T06:15:17;13.00;99.90
11009;DHT22;5557;51.670;7.788;2023-10-08T06:17:54;13.00;99.90
11009;DHT22;5557;51.670;7.788;2023-10-08T06:20:35;13.00;99.90
11009;DHT22;5557;51.670;7.788;2023-10-08T06:23:03;13.00;99.90
11009;DHT22;5557;51.670;7.788;2023-10-08T06:25:34;13.00;99.90
11009;DHT22;5557;51.670;7.788;2023-10-08T06:28:17;12.90;99.90
11009;DHT22;5557;51.670;7.788;2023-10-08T06:30:49;12.90;99.90
11009;DHT22;5557;51.670;7.788;2023-10-08T06:33:21;12.90;99.90
11009;DHT22;5557;51.670;7.788;2023-10-08T06:35:49;12.80;99.90
11009;DHT22;5557;51.670;7.788;2023-10-08T06:38:30;12.80;99.90
11009;DHT22;5557;51.670;7.788;2023-10-08T06:41:01;12.70;99.90
11009;DHT22;5557;51.670;7.788;2023-10-08T06:44:04;12.70;99.90
11009;DHT22;5557;51.670;7.788;2023-10-08T06:46:41;12.60;99.90
11009;DHT22;5557;51.670;7.788;2023-10-08T06:49:09;12.50;99.90
11009;DHT22;5557;51.670;7.788;2023-10-08T06:51:42;12.50;99.90
11009;DHT22;5557;51.670;7.788;2023-10-08T06:54:12;12.40;99.90
11009;DHT22;5557;51.670;7.788;2023-10-08T06:56:46;12.40;99.90
11009;DHT22;5557;51.670;7.788;2023-10-08T06:59:15;12.40;99.90
11009;DHT22;5557;51.670;7.788;2023-10-08T07:01:46;12.40;99.90
11009;DHT22;5557;51.670;7.788;2023-10-08T07:04:13;12.30;99.90
11009;DHT22;5557;51.670;7.788;2023-10-08T07:06:42;12.40;99.90
11009;DHT22;5557;51.670;7.788;2023-10-08T07:09:13;12.30;99.90
11009;DHT22;5557;51.670;7.788;2023-10-08T07:11:50;12.30;99.90
11009;DHT22;5557;51.670;7.788;2023-10-08T07:14:25;12.30;99.90
11009;DHT22;5557;51.670;7.788;2023-10-08T07:16:58;12.30;99.90
11009;DHT22;5557;51.670;7.788;2023-10-08T07:19:28;12.20;99.90
11009;DHT22;5557;51.670;7.788;2023-10-08T07:22:08;12.20;99.90
11009;DHT22;5557;51.670;7.788;2023-10-08T07:24:55;12.20;99.90
11009;DHT22;5557;51.670;7.788;2023-10-08T07:27:22;12.10;99.90
11009;DHT22;5557;51.670;7.788;2023-10-08T07:29:51;12.10;99.90
11009;DHT22;5557;51.670;7.788;2023-10-08T07:32:23;12.00;99.90
11009;DHT22;5557;51.670;7.788;2023-10-08T07:34:53;11.80;99.90
11009;DHT22;5557;51.670;7.788;2023-10-08T07:37:28;11.60;99.90
11009;DHT22;5557;51.670;7.788;2023-10-08T07:39:56;11.50;99.90
11009;DHT22;5557;51.670;7.788;2023-10-08T07:42:25;11.50;99.90
11009;DHT22;5557;51.670;7.788;2023-10-08T07:44:53;11.40;99.90
11009;DHT22;5557;51.670;7.788;2023-10-08T07:47:22;11.40;99.90
11009;DHT22;5557;51.670;7.788;2023-10-08T07:49:49;11.40;99.90
11009;DHT22;5557;51.670;7.788;2023-10-08T07:52:18;11.40;99.90
11009;DHT22;5557;51.670;7.788;2023-10-08T07:54:45;11.40;99.90
11009;DHT22;5557;51.670;7.788;2023-10-08T07:57:13;11.40;99.90
11009;DHT22;5557;51.670;7.788;2023-10-08T07:59:44;11.40;99.90
11009;DHT22;5557;51.670;7.788;2023-10-08T08:02:16;11.40;99.90
11009;DHT22;5557;51.670;7.788;2023-10-08T08:04:45;11.40;99.90
11009;DHT22;5557;51.670;7.788;2023-10-08T08:07:14;11.40;99.90
11009;DHT22;5557;51.670;7.788;2023-10-08T08:09:45;11.40;99.90
11009;DHT22;5557;51.670;7.788;2023-10-08T08:12:19;11.40;99.90
11009;DHT22;5557;51.670;7.788;2023-10-08T08:14:46;11.40;99.90
11009;DHT22;5557;51.670;7.788;2023-10-08T08:17:15;11.40;99.90
11009;DHT22;5557;51.670;7.788;2023-10-08T08:19:43;11.40;99.90
11009;DHT22;5557;51.670;7.788;2023-10-08T08:22:18;11.40;99.90
11009;DHT22;5557;51.670;7.788;2023-10-08T08:24:54;11.40;99.90
11009;DHT22;5557;51.670;7.788;2023-10-08T08:27:44;11.40;99.90
11009;DHT22;5557;51.670;7.788;2023-10-08T08:30:13;11.50;99.90
11009;DHT22;5557;51.670;7.788;2023-10-08T08:32:46;11.50;99.90
11009;DHT22;5557;51.670;7.788;2023-10-08T08:35:19;11.50;99.90
11009;DHT22;5557;51.670;7.788;2023-10-08T08:37:47;11.60;99.90
11009;DHT22;5557;51.670;7.788;2023-10-08T08:40:18;11.50;99.90
11009;DHT22;5557;51.670;7.788;2023-10-08T08:42:48;11.60;99.90
11009;DHT22;5557;51.670;7.788;2023-10-08T08:45:19;11.80;99.90
11009;DHT22;5557;51.670;7.788;2023-10-08T08:47:48;11.80;99.90
11009;DHT22;5557;51.670;7.788;2023-10-08T08:50:15;11.80;99.90
11009;DHT22;5557;51.670;7.788;2023-10-08T08:52:45;11.90;99.90
11009;DHT22;5557;51.670;7.788;2023-10-08T08:55:14;12.00;99.90
11009;DHT22;5557;51.670;7.788;2023-10-08T08:57:48;11.90;99.90
11009;DHT22;5557;51.670;7.788;2023-10-08T09:00:17;12.00;99.90
11009;DHT22;5557;51.670;7.788;2023-10-08T09:02:46;12.00;99.90
11009;DHT22;5557;51.670;7.788;2023-10-08T09:05:16;12.00;99.90
11009;DHT22;5557;51.670;7.788;2023-10-08T09:07:55;12.00;99.90
11009;DHT22;5557;51.670;7.788;2023-10-08T09:10:24;12.00;99.90
11009;DHT22;5557;51.670;7.788;2023-10-08T09:12:55;11.90;98.40
11009;DHT22;5557;51.670;7.788;2023-10-08T09:15:26;11.80;91.60
11009;DHT22;5557;51.670;7.788;2023-10-08T09:17:54;11.80;90.10
11009;DHT22;5557;51.670;7.788;2023-10-08T09:20:22;11.80;88.50
11009;DHT22;5557;51.670;7.788;2023-10-08T09:23:09;11.80;85.70
11009;DHT22;5557;51.670;7.788;2023-10-08T09:25:42;11.80;82.30
11009;DHT22;5557;51.670;7.788;2023-10-08T09:28:09;11.80;88.00
11009;DHT22;5557;51.670;7.788;2023-10-08T09:30:40;11.90;92.40
11009;DHT22;5557;51.670;7.788;2023-10-08T09:33:09;11.90;92.00
11009;DHT22;5557;51.670;7.788;2023-10-08T09:35:37;12.10;90.80
11009;DHT22;5557;51.670;7.788;2023-10-08T09:38:07;12.10;86.80
11009;DHT22;5557;51.670;7.788;2023-10-08T09:40:38;12.20;86.10
11009;DHT22;5557;51.670;7.788;2023-10-08T09:43:06;12.40;88.00
11009;DHT22;5557;51.670;7.788;2023-10-08T09:45:37;12.50;79.30
11009;DHT22;5557;51.670;7.788;2023-10-08T09:48:10;12.50;82.20
11009;DHT22;5557;51.670;7.788;2023-10-08T09:50:58;12.50;77.80
11009;DHT22;5557;51.670;7.788;2023-10-08T09:53:36;12.60;77.60
11009;DHT22;5557;51.670;7.788;2023-10-08T09:56:13;12.60;65.80
11009;DHT22;5557;51.670;7.788;2023-10-08T09:58:45;12.60;65.90
11009;DHT22;5557;51.670;7.788;2023-10-08T10:01:13;12.80;73.00
11009;DHT22;5557;51.670;7.788;2023-10-08T10:03:40;13.00;69.00
11009;DHT22;5557;51.670;7.788;2023-10-08T10:06:13;13.10;56.50
11009;DHT22;5557;51.670;7.788;2023-10-08T10:08:43;13.10;53.30
11009;DHT22;5557;51.670;7.788;2023-10-08T10:11:11;13.10;54.20
11009;DHT22;5557;51.670;7.788;2023-10-08T10:13:43;13.10;49.20
11009;DHT22;5557;51.670;7.788;2023-10-08T10:16:18;13.10;41.60
11009;DHT22;5557;51.670;7.788;2023-10-08T10:18:48;13.20;36.70
11009;DHT22;5557;51.670;7.788;2023-10-08T10:21:27;13.20;30.90
11009;DHT22;5557;51.670;7.788;2023-10-08T10:23:55;13.00;20.30
11009;DHT22;5557;51.670;7.788;2023-10-08T10:26:32;12.80;21.30
11009;DHT22;5557;51.670;7.788;2023-10-08T10:29:33;12.80;22.50
11009;DHT22;5557;51.670;7.788;2023-10-08T10:32:01;12.90;28.30
11009;DHT22;5557;51.670;7.788;2023-10-08T10:34:31;13.00;32.30
11009;DHT22;5557;51.670;7.788;2023-10-08T10:37:02;13.20;31.90
11009;DHT22;5557;51.670;7.788;2023-10-08T10:39:54;13.30;30.00
11009;DHT22;5557;51.670;7.788;2023-10-08T10:42:28;13.40;28.50
11009;DHT22;5557;51.670;7.788;2023-10-08T10:44:55;13.50;25.10
11009;DHT22;5557;51.670;7.788;2023-10-08T10:47:23;13.50;21.50
11009;DHT22;5557;51.670;7.788;2023-10-08T10:49:54;13.50;20.30
11009;DHT22;5557;51.670;7.788;2023-10-08T10:52:42;13.70;20.60
11009;DHT22;5557;51.670;7.788;2023-10-08T10:55:20;13.80;20.50
11009;DHT22;5557;51.670;7.788;2023-10-08T10:57:58;13.80;16.10
11009;DHT22;5557;51.670;7.788;2023-10-08T11:00:42;13.80;16.70
11009;DHT22;5557;51.670;7.788;2023-10-08T11:03:18;13.90;15.00
11009;DHT22;5557;51.670;7.788;2023-10-08T11:05:54;13.90;18.20
11009;DHT22;5557;51.670;7.788;2023-10-08T11:08:22;13.90;19.60
11009;DHT22;5557;51.670;7.788;2023-10-08T11:10:51;14.00;21.50
11009;DHT22;5557;51.670;7.788;2023-10-08T11:13:21;14.20;17.50
11009;DHT22;5557;51.670;7.788;2023-10-08T11:15:51;14.20;12.80
11009;DHT22;5557;51.670;7.788;2023-10-08T11:18:22;14.20;15.00
11009;DHT22;5557;51.670;7.788;2023-10-08T11:20:51;14.30;13.70
11009;DHT22;5557;51.670;7.788;2023-10-08T11:23:45;14.20;13.00
11009;DHT22;5557;51.670;7.788;2023-10-08T11:26:37;14.20;14.20
11009;DHT22;5557;51.670;7.788;2023-10-08T11:29:07;14.20;14.50
11009;DHT22;5557;51.670;7.788;2023-10-08T11:31:42;14.30;15.00
11009;DHT22;5557;51.670;7.788;2023-10-08T11:34:11;14.50;16.70
11009;DHT22;5557;51.670;7.788;2023-10-08T11:36:41;14.50;14.20
11009;DHT22;5557;51.670;7.788;2023-10-08T11:39:20;14.50;14.90
11009;DHT22;5557;51.670;7.788;2023-10-08T11:41:57;14.60;15.10
11009;DHT22;5557;51.670;7.788;2023-10-08T11:44:31;14.80;13.80
11009;DHT22;5557;51.670;7.788;2023-10-08T11:47:03;14.80;8.00
11009;DHT22;5557;51.670;7.788;2023-10-08T11:49:47;14.70;7.90
11009;DHT22;5557;51.670;7.788;2023-10-08T11:52:18;14.60;6.90
11009;DHT22;5557;51.670;7.788;2023-10-08T11:54:49;14.60;7.90
11009;DHT22;5557;51.670;7.788;2023-10-08T11:57:18;14.80;8.00
11009;DHT22;5557;51.670;7.788;2023-10-08T11:59:50;15.00;7.20
11009;DHT22;5557;51.670;7.788;2023-10-08T12:02:22;15.10;2.80
11009;DHT22;5557;51.670;7.788;2023-10-08T12:04:49;15.10;2.30
11009;DHT22;5557;51.670;7.788;2023-10-08T12:07:16;14.90;2.60
11009;DHT22;5557;51.670;7.788;2023-10-08T12:09:45;14.70;3.10
11009;DHT22;5557;51.670;7.788;2023-10-08T12:12:16;14.80;4.80
11009;DHT22;5557;51.670;7.788;2023-10-08T12:14:47;14.90;4.00
11009;DHT22;5557;51.670;7.788;2023-10-08T12:17:16;14.90;2.30
11009;DHT22;5557;51.670;7.788;2023-10-08T12:19:44;14.80;2.60
11009;DHT22;5557;51.670;7.788;2023-10-08T12:22:12;14.90;4.00
11009;DHT22;5557;51.670;7.788;2023-10-08T12:24:45;14.90;5.70
11009;DHT22;5557;51.670;7.788;2023-10-08T12:27:12;15.10;7.20
11009;DHT22;5557;51.670;7.788;2023-10-08T12:29:41;15.20;3.70
11009;DHT22;5557;51.670;7.788;2023-10-08T12:32:09;15.10;2.00
11009;DHT22;5557;51.670;7.788;2023-10-08T12:34:44;15.20;1.00
11009;DHT22;5557;51.670;7.788;2023-10-08T12:37:15;15.10;1.00
11009;DHT22;5557;51.670;7.788;2023-10-08T12:39:42;15.10;1.00
11009;DHT22;5557;51.670;7.788;2023-10-08T12:42:27;15.20;1.00
11009;DHT22;5557;51.670;7.788;2023-10-08T12:44:54;15.00;1.30
11009;DHT22;5557;51.670;7.788;2023-10-08T12:47:24;15.00;2.30
11009;DHT22;5557;51.670;7.788;2023-10-08T12:49:56;15.00;2.50
11009;DHT22;5557;51.670;7.788;2023-10-08T12:52:24;15.10;1.40
11009;DHT22;5557;51.670;7.788;2023-10-08T12:54:55;15.10;2.30
11009;DHT22;5557;51.670;7.788;2023-10-08T12:57:26;15.20;3.40
11009;DHT22;5557;51.670;7.788;2023-10-08T13:00:00;15.20;1.50
11009;DHT22;5557;51.670;7.788;2023-10-08T13:02:27;15.10;2.40
11009;DHT22;5557;51.670;7.788;2023-10-08T13:04:56;15.10;2.80
11009;DHT22;5557;51.670;7.788;2023-10-08T13:07:25;15.00;2.50
11009;DHT22;5557;51.670;7.788;2023-10-08T13:09:53;15.00;3.80
11009;DHT22;5557;51.670;7.788;2023-10-08T13:12:20;15.00;3.80
11009;DHT22;5557;51.670;7.788;2023-10-08T13:14:48;14.90;4.70
11009;DHT22;5557;51.670;7.788;2023-10-08T13:17:16;14.90;5.50
11009;DHT22;5557;51.670;7.788;2023-10-08T13:19:43;15.00;5.90
11009;DHT22;5557;51.670;7.788;2023-10-08T13:22:12;14.90;8.50
11009;DHT22;5557;51.670;7.788;2023-10-08T13:24:46;14.90;7.00
11009;DHT22;5557;51.670;7.788;2023-10-08T13:27:15;14.90;8.10
11009;DHT22;5557;51.670;7.788;2023-10-08T13:29:43;14.90;8.50
11009;DHT22;5557;51.670;7.788;2023-10-08T13:32:10;14.90;6.10
11009;DHT22;5557;51.670;7.788;2023-10-08T13:34:45;14.90;8.10
11009;DHT22;5557;51.670;7.788;2023-10-08T13:37:13;15.00;6.70
11009;DHT22;5557;51.670;7.788;2023-10-08T13:39:43;15.00;6.10
11009;DHT22;5557;51.670;7.788;2023-10-08T13:42:10;15.10;4.90
11009;DHT22;5557;51.670;7.788;2023-10-08T13:44:43;15.00;4.40
11009;DHT22;5557;51.670;7.788;2023-10-08T13:47:12;15.00;6.50
11009;DHT22;5557;51.670;7.788;2023-10-08T13:49:42;15.00;8.10
11009;DHT22;5557;51.670;7.788;2023-10-08T13:52:10;15.10;8.20
11009;DHT22;5557;51.670;7.788;2023-10-08T13:54:37;15.00;8.10
11009;DHT22;5557;51.670;7.788;2023-10-08T13:57:09;14.90;8.80
11009;DHT22;5557;51.670;7.788;2023-10-08T13:59:41;14.90;11.50
11009;DHT22;5557;51.670;7.788;2023-10-08T14:02:09;14.90;10.80
11009;DHT22;5557;51.670;7.788;2023-10-08T14:04:43;14.90;10.10
11009;DHT22;5557;51.670;7.788;2023-10-08T14:07:11;14.90;10.90
11009;DHT22;5557;51.670;7.788;2023-10-08T14:09:44;14.90;13.00
11009;DHT22;5557;51.670;7.788;2023-10-08T14:12:13;14.90;12.80
11009;DHT22;5557;51.670;7.788;2023-10-08T14:14:43;14.80;12.50
11009;DHT22;5557;51.670;7.788;2023-10-08T14:17:15;14.80;14.50
11009;DHT22;5557;51.670;7.788;2023-10-08T14:19:42;14.80;15.20
11009;DHT22;5557;51.670;7.788;2023-10-08T14:22:14;14.80;16.90
11009;DHT22;5557;51.670;7.788;2023-10-08T14:24:42;14.80;16.60
11009;DHT22;5557;51.670;7.788;2023-10-08T14:27:13;14.80;19.10
11009;DHT22;5557;51.670;7.788;2023-10-08T14:29:43;14.90;18.30
11009;DHT22;5557;51.670;7.788;2023-10-08T14:32:19;14.80;18.60
11009;DHT22;5557;51.670;7.788;2023-10-08T14:34:47;14.80;18.80
11009;DHT22;5557;51.670;7.788;2023-10-08T14:37:34;14.80;20.80
11009;DHT22;5557;51.670;7.788;2023-10-08T14:40:20;14.90;21.30
11009;DHT22;5557;51.670;7.788;2023-10-08T14:43:06;15.00;18.50
11009;DHT22;5557;51.670;7.788;2023-10-08T14:45:36;15.00;18.60
11009;DHT22;5557;51.670;7.788;2023-10-08T14:48:04;14.90;20.00
11009;DHT22;5557;51.670;7.788;2023-10-08T14:50:39;14.90;21.30
11009;DHT22;5557;51.670;7.788;2023-10-08T14:53:07;14.90;24.30
11009;DHT22;5557;51.670;7.788;2023-10-08T14:55:38;14.80;25.50
11009;DHT22;5557;51.670;7.788;2023-10-08T14:58:06;14.70;26.60
11009;DHT22;5557;51.670;7.788;2023-10-08T15:00:38;14.70;26.90
11009;DHT22;5557;51.670;7.788;2023-10-08T15:03:06;14.60;26.70
11009;DHT22;5557;51.670;7.788;2023-10-08T15:05:34;14.70;26.70
11009;DHT22;5557;51.670;7.788;2023-10-08T15:08:05;14.60;26.30
11009;DHT22;5557;51.670;7.788;2023-10-08T15:10:38;14.70;26.80
11009;DHT22;5557;51.670;7.788;2023-10-08T15:13:05;14.70;24.00
11009;DHT22;5557;51.670;7.788;2023-10-08T15:15:33;14.70;25.60
11009;DHT22;5557;51.670;7.788;2023-10-08T15:18:03;14.80;25.60
11009;DHT22;5557;51.670;7.788;2023-10-08T15:20:30;14.80;16.60
11009;DHT22;5557;51.670;7.788;2023-10-08T15:22:59;14.70;15.50
11009;DHT22;5557;51.670;7.788;2023-10-08T15:25:26;14.70;15.90
11009;DHT22;5557;51.670;7.788;2023-10-08T15:27:54;14.70;17.60
11009;DHT22;5557;51.670;7.788;2023-10-08T15:30:21;14.70;16.80
11009;DHT22;5557;51.670;7.788;2023-10-08T15:32:52;14.70;17.10
11009;DHT22;5557;51.670;7.788;2023-10-08T15:35:20;14.60;16.00
11009;DHT22;5557;51.670;7.788;2023-10-08T15:37:51;14.60;15.50
11009;DHT22;5557;51.670;7.788;2023-10-08T15:40:19;14.60;14.00
11009;DHT22;5557;51.670;7.788;2023-10-08T15:42:54;14.60;15.70
11009;DHT22;5557;51.670;7.788;2023-10-08T15:45:24;14.60;15.40
11009;DHT22;5557;51.670;7.788;2023-10-08T15:47:52;14.60;15.10
11009;DHT22;5557;51.670;7.788;2023-10-08T15:50:21;14.60;14.90
11009;DHT22;5557;51.670;7.788;2023-10-08T15:52:52;14.60;15.90
11009;DHT22;5557;51.670;7.788;2023-10-08T15:55:20;14.60;15.70
11009;DHT22;5557;51.670;7.788;2023-10-08T15:57:54;14.50;17.10
11009;DHT22;5557;51.670;7.788;2023-10-08T16:00:21;14.50;16.90
11009;DHT22;5557;51.670;7.788;2023-10-08T16:02:49;14.50;16.70
11009;DHT22;5557;51.670;7.788;2023-10-08T16:05:17;14.50;16.90
11009;DHT22;5557;51.670;7.788;2023-10-08T16:07:45;14.40;16.30
11009;DHT22;5557;51.670;7.788;2023-10-08T16:10:13;14.40;16.60
11009;DHT22;5557;51.670;7.788;2023-10-08T16:12:41;14.40;15.50
11009;DHT22;5557;51.670;7.788;2023-10-08T16:15:09;14.40;14.50
11009;DHT22;5557;51.670;7.788;2023-10-08T16:17:36;14.40;14.50
11009;DHT22;5557;51.670;7.788;2023-10-08T16:20:07;14.40;15.50
11009;DHT22;5557;51.670;7.788;2023-10-08T16:22:42;14.40;12.50